Time;durP1;ratioP1;P1;durP2;ratioP2;P2;SDS_P1;SDS_P2;PMS_P1;PMS_P2;Temp;Humidity;BMP_temperature;BMP_pressure;BME280_temperature;BME280_humidity;BME280_pressure;Samples;Min_cycle;Max_cycle;Signal;HPM_P1;HPM_P2
2021/08/24 00:01:26;;;;;;;3.73;2.70;;;;;;;;;;5072705;28;20465;-73
2021/08/24 00:03:53;;;;;;;2.83;2.63;;;;;;;;;;5072755;28;20455;-73
2021/08/24 00:06:20;;;;;;;5.20;3.17;;;;;;;;;;5073150;28;20447;-73
2021/08/24 00:08:47;;;;;;;3.97;3.40;;;;;;;;;;5073779;28;20446;-74
2021/08/24 00:11:14;;;;;;;3.50;3.20;;;;;;;;;;5076513;28;20475;-74
2021/08/24 00:13:42;;;;;;;3.30;3.00;;;;;;;;;;5076732;28;20443;-73
2021/08/24 00:16:10;;;;;;;6.60;3.23;;;;;;;;;;5076937;28;20930;-74
2021/08/24 00:18:38;;;;;;;3.80;3.00;;;;;;;;;;5076229;28;20523;-75
2021/08/24 00:21:05;;;;;;;4.13;3.40;;;;;;;;;;5075976;28;20446;-75
2021/08/24 00:23:33;;;;;;;4.83;3.00;;;;;;;;;;5075775;28;20472;-75
2021/08/24 00:26:02;;;;;;;3.97;3.07;;;;;;;;;;5076978;28;20469;-74
2021/08/24 00:28:29;;;;;;;8.40;3.07;;;;;;;;;;5076741;28;20779;-74
2021/08/24 00:30:57;;;;;;;7.13;3.83;;;;;;;;;;5076168;28;20485;-74
2021/08/24 00:33:26;;;;;;;5.27;3.37;;;;;;;;;;5076850;28;20446;-75
2021/08/24 00:35:53;;;;;;;3.80;3.50;;;;;;;;;;5075989;28;20435;-74
2021/08/24 00:38:22;;;;;;;5.50;4.00;;;;;;;;;;5077061;28;20802;-75
2021/08/24 00:40:53;;;;;;;4.30;3.97;;;;;;;;;;5075004;28;20939;-75
2021/08/24 00:43:22;;;;;;;6.10;4.33;;;;;;;;;;5076461;28;20522;-75
2021/08/24 00:46:01;;;;;;;6.53;3.60;;;;;;;;;;5076100;28;20445;-74
2021/08/24 00:48:31;;;;;;;5.47;3.47;;;;;;;;;;5075412;28;20448;-74
2021/08/24 00:50:59;;;;;;;4.10;3.70;;;;;;;;;;5076192;28;20482;-74
2021/08/24 00:53:28;;;;;;;7.63;3.97;;;;;;;;;;5076036;28;21028;-74
2021/08/24 00:55:56;;;;;;;8.60;3.90;;;;;;;;;;5076243;28;20455;-74
2021/08/24 00:58:23;;;;;;;5.93;3.83;;;;;;;;;;5075982;28;20483;-74
2021/08/24 01:00:50;;;;;;;5.70;4.43;;;;;;;;;;5075861;28;20442;-74
2021/08/24 01:03:20;;;;;;;4.13;3.73;;;;;;;;;;5076001;28;20445;-74
2021/08/24 01:05:49;;;;;;;4.50;4.10;;;;;;;;;;5076066;28;20460;-75
2021/08/24 01:08:20;;;;;;;5.80;4.30;;;;;;;;;;5076094;28;20467;-74
2021/08/24 01:10:51;;;;;;;5.50;5.00;;;;;;;;;;5089150;28;20994;-75
2021/08/24 01:13:25;;;;;;;6.17;4.20;;;;;;;;;;5095721;28;20430;-75
2021/08/24 01:15:57;;;;;;;4.60;3.80;;;;;;;;;;5096695;28;20419;-75
2021/08/24 01:18:28;;;;;;;4.83;4.33;;;;;;;;;;5096461;28;20786;-75
2021/08/24 01:21:19;;;;;;;8.30;4.10;;;;;;;;;;5095037;28;20436;-75
2021/08/24 01:23:50;;;;;;;7.00;4.50;;;;;;;;;;5095821;28;20480;-74
2021/08/24 01:26:23;;;;;;;5.27;4.77;;;;;;;;;;5095884;28;20447;-75
2021/08/24 01:29:00;;;;;;;4.90;4.40;;;;;;;;;;5095991;28;20425;-75
2021/08/24 01:31:35;;;;;;;5.97;4.90;;;;;;;;;;5095666;28;20552;-76
2021/08/24 01:34:08;;;;;;;5.00;4.50;;;;;;;;;;5096352;28;20914;-75
2021/08/24 01:36:39;;;;;;;8.77;4.73;;;;;;;;;;5095688;28;20428;-75
2021/08/24 01:39:08;;;;;;;5.33;4.70;;;;;;;;;;5093467;28;20432;-74
2021/08/24 01:41:51;;;;;;;6.40;4.70;;;;;;;;;;5073802;28;20445;-75
2021/08/24 01:44:20;;;;;;;7.43;5.27;;;;;;;;;;5075094;28;20434;-74
2021/08/24 01:46:49;;;;;;;6.03;5.20;;;;;;;;;;5075698;28;20441;-74
2021/08/24 01:49:17;;;;;;;7.93;4.80;;;;;;;;;;5075019;28;20443;-74
2021/08/24 01:51:48;;;;;;;5.83;5.13;;;;;;;;;;5075130;28;20492;-74
2021/08/24 01:54:18;;;;;;;5.40;4.93;;;;;;;;;;5075512;28;20430;-75
2021/08/24 01:56:46;;;;;;;5.40;4.80;;;;;;;;;;5074847;28;20434;-75
2021/08/24 01:59:18;;;;;;;5.30;4.80;;;;;;;;;;5074777;28;20942;-74
2021/08/24 02:01:47;;;;;;;7.70;6.00;;;;;;;;;;5074372;28;20425;-74
2021/08/24 02:04:17;;;;;;;7.80;5.63;;;;;;;;;;5074583;28;20441;-74
2021/08/24 02:06:45;;;;;;;6.30;5.70;;;;;;;;;;5075499;28;20427;-75
2021/08/24 02:09:16;;;;;;;7.00;5.20;;;;;;;;;;5074875;28;20446;-74
2021/08/24 02:11:44;;;;;;;5.47;4.93;;;;;;;;;;5073224;28;20465;-74
2021/08/24 02:14:13;;;;;;;6.03;5.10;;;;;;;;;;5074457;28;20923;-75
2021/08/24 02:16:40;;;;;;;9.10;5.60;;;;;;;;;;5074726;28;20797;-74
2021/08/24 02:19:09;;;;;;;6.93;4.90;;;;;;;;;;5074753;28;20455;-75
2021/08/24 02:21:39;;;;;;;8.47;4.60;;;;;;;;;;5073251;28;20452;-75
2021/08/24 02:24:07;;;;;;;6.03;5.07;;;;;;;;;;5073527;28;20485;-74
2021/08/24 02:26:37;;;;;;;5.93;4.87;;;;;;;;;;5074464;28;20449;-75
2021/08/24 02:29:05;;;;;;;6.10;5.30;;;;;;;;;;5074170;28;20447;-74
2021/08/24 02:31:34;;;;;;;9.50;5.70;;;;;;;;;;5073860;28;21020;-74
2021/08/24 02:34:06;;;;;;;7.50;5.30;;;;;;;;;;5074731;28;20453;-74
2021/08/24 02:36:35;;;;;;;8.97;6.03;;;;;;;;;;5073824;28;20975;-74
2021/08/24 02:39:05;;;;;;;5.43;4.90;;;;;;;;;;5074279;28;20442;-75
2021/08/24 02:41:36;;;;;;;6.47;5.87;;;;;;;;;;5072279;28;20445;-73
2021/08/24 02:44:08;;;;;;;8.13;6.00;;;;;;;;;;5074621;28;20427;-73
2021/08/24 02:46:36;;;;;;;7.23;5.50;;;;;;;;;;5074787;28;20513;-73
2021/08/24 02:49:07;;;;;;;6.33;5.70;;;;;;;;;;5073736;28;20457;-74
2021/08/24 02:51:34;;;;;;;5.77;5.17;;;;;;;;;;5073809;28;20473;-73
2021/08/24 02:54:05;;;;;;;9.17;6.07;;;;;;;;;;5074026;28;20457;-74
2021/08/24 02:56:32;;;;;;;8.80;5.53;;;;;;;;;;5074046;28;20436;-73
2021/08/24 02:58:59;;;;;;;6.87;6.10;;;;;;;;;;5073907;28;20446;-73
2021/08/24 03:01:28;;;;;;;5.80;5.30;;;;;;;;;;5073414;28;20446;-74
2021/08/24 03:03:55;;;;;;;6.83;6.17;;;;;;;;;;5073904;28;20911;-74
2021/08/24 03:06:22;;;;;;;5.57;5.07;;;;;;;;;;5073493;28;20480;-73
2021/08/24 03:08:49;;;;;;;6.07;5.37;;;;;;;;;;5073778;28;20441;-74
2021/08/24 03:11:20;;;;;;;5.63;5.07;;;;;;;;;;5072348;28;20454;-74
2021/08/24 03:13:50;;;;;;;6.20;5.30;;;;;;;;;;5073200;28;20434;-74
2021/08/24 03:16:19;;;;;;;10.63;6.83;;;;;;;;;;5074070;28;20435;-74
2021/08/24 03:18:49;;;;;;;8.13;6.10;;;;;;;;;;5073693;28;20438;-74
2021/08/24 03:21:19;;;;;;;10.40;6.10;;;;;;;;;;5073371;28;20985;-74
2021/08/24 03:23:47;;;;;;;6.00;5.40;;;;;;;;;;5073110;28;20475;-74
2021/08/24 03:26:14;;;;;;;9.43;7.20;;;;;;;;;;5073098;28;20441;-74
2021/08/24 03:28:42;;;;;;;8.67;6.10;;;;;;;;;;5074373;28;20452;-74
2021/08/24 03:31:14;;;;;;;6.43;5.83;;;;;;;;;;5073871;28;20807;-74
2021/08/24 03:33:41;;;;;;;14.80;6.10;;;;;;;;;;5073354;28;20449;-74
2021/08/24 03:36:10;;;;;;;6.93;5.90;;;;;;;;;;5073387;28;20449;-74
2021/08/24 03:38:38;;;;;;;11.53;6.40;;;;;;;;;;5073000;28;20448;-74
2021/08/24 03:41:05;;;;;;;6.90;6.20;;;;;;;;;;5073438;28;20445;-74
2021/08/24 03:43:32;;;;;;;10.47;6.30;;;;;;;;;;5071801;28;20446;-73
2021/08/24 03:46:00;;;;;;;6.83;6.10;;;;;;;;;;5073396;28;20437;-73
2021/08/24 03:48:27;;;;;;;6.97;6.27;;;;;;;;;;5073545;28;20519;-73
2021/08/24 03:50:54;;;;;;;6.70;5.73;;;;;;;;;;5073350;28;20471;-73
2021/08/24 03:53:23;;;;;;;10.87;7.20;;;;;;;;;;5072754;28;20449;-73
2021/08/24 03:55:50;;;;;;;9.60;6.50;;;;;;;;;;5073303;28;20437;-73
2021/08/24 03:58:17;;;;;;;9.83;7.03;;;;;;;;;;5072424;28;20511;-73
2021/08/24 04:00:44;;;;;;;8.70;6.47;;;;;;;;;;5072596;28;20449;-74
2021/08/24 04:03:11;;;;;;;6.97;6.30;;;;;;;;;;5072712;28;20500;-74
2021/08/24 04:05:38;;;;;;;9.10;7.70;;;;;;;;;;5072920;28;20496;-74
2021/08/24 04:08:06;;;;;;;8.30;7.20;;;;;;;;;;5073340;28;20521;-75
2021/08/24 04:10:35;;;;;;;7.37;6.60;;;;;;;;;;5073403;28;20914;-75
2021/08/24 04:13:02;;;;;;;9.30;7.30;;;;;;;;;;5071171;28;20441;-74
2021/08/24 04:15:29;;;;;;;8.60;7.70;;;;;;;;;;5072422;28;20948;-75
2021/08/24 04:17:57;;;;;;;7.73;6.93;;;;;;;;;;5072905;28;20441;-75
2021/08/24 04:20:24;;;;;;;7.80;7.10;;;;;;;;;;5073222;28;20452;-75
2021/08/24 04:22:52;;;;;;;8.20;7.30;;;;;;;;;;5071723;28;20489;-75
2021/08/24 04:25:19;;;;;;;7.50;6.70;;;;;;;;;;5071739;28;20448;-75
2021/08/24 04:27:48;;;;;;;13.20;7.33;;;;;;;;;;5073194;28;20445;-76
2021/08/24 04:30:15;;;;;;;8.73;7.07;;;;;;;;;;5072244;28;20448;-76
2021/08/24 04:32:43;;;;;;;8.80;7.90;;;;;;;;;;5071494;28;20449;-76
2021/08/24 04:35:11;;;;;;;10.87;8.00;;;;;;;;;;5072000;28;20450;-76
2021/08/24 04:37:38;;;;;;;8.40;7.60;;;;;;;;;;5072171;28;20448;-77
2021/08/24 04:40:06;;;;;;;9.90;7.43;;;;;;;;;;5072750;28;20531;-75
2021/08/24 04:42:33;;;;;;;11.63;7.77;;;;;;;;;;5072555;28;20476;-76
2021/08/24 04:45:02;;;;;;;10.27;6.90;;;;;;;;;;5072026;28;20876;-76
2021/08/24 04:47:29;;;;;;;9.63;7.70;;;;;;;;;;5071383;28;20446;-76
2021/08/24 04:49:56;;;;;;;10.07;8.77;;;;;;;;;;5072319;28;20441;-76
2021/08/24 04:52:23;;;;;;;11.27;8.77;;;;;;;;;;5071971;28;20869;-76
2021/08/24 04:54:51;;;;;;;9.30;8.40;;;;;;;;;;5073068;28;20446;-74
2021/08/24 04:57:18;;;;;;;10.70;8.60;;;;;;;;;;5075346;28;20448;-75
2021/08/24 04:59:45;;;;;;;11.37;8.63;;;;;;;;;;5076151;28;20450;-75
2021/08/24 05:02:14;;;;;;;9.13;7.53;;;;;;;;;;5075390;28;20606;-75
2021/08/24 05:04:41;;;;;;;12.03;8.90;;;;;;;;;;5075929;28;20547;-76
2021/08/24 05:07:08;;;;;;;10.73;7.90;;;;;;;;;;5075466;28;20433;-75
2021/08/24 05:09:35;;;;;;;10.43;8.60;;;;;;;;;;5075337;28;20444;-77
2021/08/24 05:12:03;;;;;;;8.90;7.97;;;;;;;;;;5074618;28;20535;-74
2021/08/24 05:14:30;;;;;;;11.07;8.73;;;;;;;;;;5075497;28;20449;-76
2021/08/24 05:16:58;;;;;;;10.93;8.30;;;;;;;;;;5075869;28;20468;-75
2021/08/24 05:19:27;;;;;;;14.10;8.40;;;;;;;;;;5076076;28;20446;-76
2021/08/24 05:21:54;;;;;;;12.57;9.27;;;;;;;;;;5074235;28;20504;-67
2021/08/24 05:24:22;;;;;;;9.83;8.73;;;;;;;;;;5075398;28;20443;-69
2021/08/24 05:26:49;;;;;;;13.20;9.53;;;;;;;;;;5075641;28;20437;-69
2021/08/24 05:29:17;;;;;;;12.10;9.03;;;;;;;;;;5075374;28;21035;-69
2021/08/24 05:31:44;;;;;;;9.63;8.67;;;;;;;;;;5075905;28;20451;-70
2021/08/24 05:34:11;;;;;;;11.40;9.50;;;;;;;;;;5075010;28;20453;-70
2021/08/24 05:36:40;;;;;;;16.73;9.90;;;;;;;;;;5075466;28;20451;-70
2021/08/24 05:39:07;;;;;;;15.07;10.17;;;;;;;;;;5075074;28;20441;-69
2021/08/24 05:41:34;;;;;;;14.20;8.53;;;;;;;;;;5075225;28;20800;-69
2021/08/24 05:44:02;;;;;;;10.70;8.77;;;;;;;;;;5075026;28;20480;-70
2021/08/24 05:46:29;;;;;;;9.50;8.50;;;;;;;;;;5075393;28;20441;-70
2021/08/24 05:48:56;;;;;;;9.60;8.60;;;;;;;;;;5075577;28;20442;-69
2021/08/24 05:51:24;;;;;;;10.67;9.60;;;;;;;;;;5072941;28;21029;-69
2021/08/24 05:53:52;;;;;;;13.23;9.30;;;;;;;;;;5074973;28;20545;-69
2021/08/24 05:56:21;;;;;;;9.30;8.30;;;;;;;;;;5074778;28;20445;-69
2021/08/24 05:58:48;;;;;;;9.80;8.40;;;;;;;;;;5075604;28;20543;-70
2021/08/24 06:01:18;;;;;;;10.90;8.33;;;;;;;;;;5075245;28;20436;-69
2021/08/24 06:03:45;;;;;;;12.57;8.27;;;;;;;;;;5074155;28;20480;-70
2021/08/24 06:06:18;;;;;;;10.70;9.20;;;;;;;;;;5074907;28;20437;-69
2021/08/24 06:08:45;;;;;;;9.27;7.43;;;;;;;;;;5074788;28;20980;-70
2021/08/24 06:11:18;;;;;;;12.67;8.47;;;;;;;;;;5074855;28;20484;-70
2021/08/24 06:13:45;;;;;;;10.73;9.63;;;;;;;;;;5074357;28;20446;-70
2021/08/24 06:16:12;;;;;;;8.40;7.53;;;;;;;;;;5074282;28;20744;-69
2021/08/24 06:18:39;;;;;;;8.67;7.77;;;;;;;;;;5074497;28;20441;-70
2021/08/24 06:21:07;;;;;;;9.00;7.70;;;;;;;;;;5074032;28;20527;-70
2021/08/24 06:23:34;;;;;;;9.17;8.30;;;;;;;;;;5074332;28;20852;-69
2021/08/24 06:26:01;;;;;;;7.37;6.67;;;;;;;;;;5074522;28;20440;-69
2021/08/24 06:28:30;;;;;;;8.57;7.67;;;;;;;;;;5073875;28;20449;-69
2021/08/24 06:30:57;;;;;;;9.40;8.00;;;;;;;;;;5074078;28;21006;-70
2021/08/24 06:33:27;;;;;;;8.13;7.30;;;;;;;;;;5073738;28;20538;-69
2021/08/24 06:35:54;;;;;;;10.30;7.73;;;;;;;;;;5074039;28;20441;-70
2021/08/24 06:38:21;;;;;;;11.80;7.17;;;;;;;;;;5073906;28;20452;-70
2021/08/24 06:40:48;;;;;;;7.00;6.20;;;;;;;;;;5073772;28;20889;-70
2021/08/24 06:43:16;;;;;;;11.30;7.43;;;;;;;;;;5074142;28;20469;-70
2021/08/24 06:45:44;;;;;;;11.23;6.63;;;;;;;;;;5074000;28;20441;-70
2021/08/24 06:48:12;;;;;;;6.73;5.60;;;;;;;;;;5074175;28;20515;-69
2021/08/24 06:50:39;;;;;;;7.83;6.27;;;;;;;;;;5072079;28;20498;-69
2021/08/24 06:53:06;;;;;;;7.43;5.90;;;;;;;;;;5073522;28;20442;-69
2021/08/24 06:55:34;;;;;;;5.90;5.30;;;;;;;;;;5073601;28;20438;-70
2021/08/24 06:58:02;;;;;;;5.30;4.80;;;;;;;;;;5073333;28;20477;-70
2021/08/24 07:00:29;;;;;;;6.50;5.90;;;;;;;;;;5073613;28;20531;-70
2021/08/24 07:02:58;;;;;;;8.63;4.70;;;;;;;;;;5073547;28;20489;-70
2021/08/24 07:05:28;;;;;;;7.47;5.37;;;;;;;;;;5073685;28;20454;-70
2021/08/24 07:07:55;;;;;;;9.97;5.30;;;;;;;;;;5073906;28;20452;-69
2021/08/24 07:10:24;;;;;;;4.80;4.30;;;;;;;;;;5073504;28;20453;-69
2021/08/24 07:12:51;;;;;;;6.10;4.70;;;;;;;;;;5073434;28;20947;-70
2021/08/24 07:15:19;;;;;;;6.10;4.27;;;;;;;;;;5089520;28;20989;-70
2021/08/24 07:17:47;;;;;;;4.30;3.90;;;;;;;;;;5093425;28;20459;-70
2021/08/24 07:20:18;;;;;;;9.03;4.10;;;;;;;;;;5093852;28;20440;-69
2021/08/24 07:22:45;;;;;;;4.70;3.90;;;;;;;;;;5093534;28;20481;-70
2021/08/24 07:25:14;;;;;;;7.23;4.40;;;;;;;;;;5093642;28;20432;-70
2021/08/24 07:27:41;;;;;;;8.43;3.67;;;;;;;;;;5093876;28;20445;-70
2021/08/24 07:30:09;;;;;;;4.20;3.20;;;;;;;;;;5093770;28;20438;-70
2021/08/24 07:32:37;;;;;;;8.83;3.27;;;;;;;;;;5093624;28;20442;-69
2021/08/24 07:35:04;;;;;;;4.43;3.57;;;;;;;;;;5093658;28;20517;-70
2021/08/24 07:37:33;;;;;;;4.80;3.43;;;;;;;;;;5093257;28;20437;-70
2021/08/24 07:40:00;;;;;;;3.87;3.57;;;;;;;;;;5093579;28;20473;-70
2021/08/24 07:42:28;;;;;;;7.47;4.53;;;;;;;;;;5093130;28;20455;-70
2021/08/24 07:44:55;;;;;;;14.23;8.33;;;;;;;;;;5076579;28;20442;-70
2021/08/24 07:47:22;;;;;;;7.40;3.93;;;;;;;;;;5072870;28;20439;-70
2021/08/24 07:49:51;;;;;;;5.20;3.63;;;;;;;;;;5073559;28;20478;-70
2021/08/24 07:52:19;;;;;;;3.50;3.20;;;;;;;;;;5072743;28;20450;-70
2021/08/24 07:54:47;;;;;;;4.40;3.53;;;;;;;;;;5073174;28;20447;-70
2021/08/24 07:57:15;;;;;;;3.67;3.17;;;;;;;;;;5073618;28;20445;-70
2021/08/24 07:59:43;;;;;;;3.77;3.23;;;;;;;;;;5072621;28;20448;-70
2021/08/24 08:02:14;;;;;;;3.50;3.20;;;;;;;;;;5072862;28;20445;-70
2021/08/24 08:04:41;;;;;;;3.83;3.33;;;;;;;;;;5072879;28;20489;-69
2021/08/24 08:07:08;;;;;;;5.40;3.47;;;;;;;;;;5072812;28;20457;-70
2021/08/24 08:09:35;;;;;;;3.90;2.90;;;;;;;;;;5073139;28;20437;-69
2021/08/24 08:12:05;;;;;;;8.33;2.97;;;;;;;;;;5073292;28;20444;-70
2021/08/24 08:14:32;;;;;;;5.73;3.97;;;;;;;;;;5072911;28;20482;-70
2021/08/24 08:16:59;;;;;;;2.80;2.60;;;;;;;;;;5072767;28;20798;-69
2021/08/24 08:19:26;;;;;;;3.37;2.73;;;;;;;;;;5073057;28;20442;-70
2021/08/24 08:21:53;;;;;;;7.27;2.70;;;;;;;;;;5073386;28;20445;-69
2021/08/24 08:24:21;;;;;;;4.70;2.97;;;;;;;;;;5072460;28;20474;-70
2021/08/24 08:26:48;;;;;;;7.53;2.63;;;;;;;;;;5072639;28;20437;-70
2021/08/24 08:29:17;;;;;;;4.93;2.70;;;;;;;;;;5071967;28;20979;-70
2021/08/24 08:31:45;;;;;;;3.33;2.60;;;;;;;;;;5076614;28;20811;-70
2021/08/24 08:34:12;;;;;;;6.10;2.93;;;;;;;;;;5076975;28;20497;-70
2021/08/24 08:36:40;;;;;;;3.27;2.63;;;;;;;;;;5076170;28;20460;-70
2021/08/24 08:39:07;;;;;;;4.80;3.30;;;;;;;;;;5076669;28;20447;-70
2021/08/24 08:41:36;;;;;;;9.50;3.67;;;;;;;;;;5076191;28;20442;-70
2021/08/24 08:44:05;;;;;;;4.27;3.13;;;;;;;;;;5075101;28;20475;-69
2021/08/24 08:46:40;;;;;;;3.40;3.03;;;;;;;;;;5076221;28;20533;-70
2021/08/24 08:49:16;;;;;;;5.17;3.40;;;;;;;;;;5076510;28;20432;-69
2021/08/24 08:51:48;;;;;;;4.47;2.90;;;;;;;;;;5075184;28;20438;-69
2021/08/24 08:54:20;;;;;;;3.03;2.20;;;;;;;;;;5075469;28;20434;-70
2021/08/24 08:56:49;;;;;;;5.70;3.40;;;;;;;;;;5076294;28;20520;-70
2021/08/24 08:59:18;;;;;;;6.90;2.90;;;;;;;;;;5075143;28;20441;-70
2021/08/24 09:01:57;;;;;;;7.90;3.10;;;;;;;;;;5076080;28;20449;-69
2021/08/24 09:04:27;;;;;;;4.60;3.23;;;;;;;;;;5076375;28;20493;-69
2021/08/24 09:06:57;;;;;;;4.17;2.83;;;;;;;;;;5075940;28;20432;-70
2021/08/24 09:09:26;;;;;;;4.03;2.93;;;;;;;;;;5076166;28;20479;-69
2021/08/24 09:11:53;;;;;;;8.23;3.67;;;;;;;;;;5075940;28;20480;-70
2021/08/24 09:14:28;;;;;;;3.63;3.33;;;;;;;;;;5075690;28;20957;-70
2021/08/24 09:17:00;;;;;;;3.20;2.90;;;;;;;;;;5075206;28;20471;-69
2021/08/24 09:19:32;;;;;;;3.27;2.83;;;;;;;;;;5089997;28;20438;-69
2021/08/24 09:21:59;;;;;;;3.53;2.97;;;;;;;;;;5095313;28;20596;-68
2021/08/24 09:24:28;;;;;;;6.87;3.37;;;;;;;;;;5095222;28;20959;-69
2021/08/24 09:26:56;;;;;;;5.23;2.80;;;;;;;;;;5094718;28;20457;-69
2021/08/24 09:29:25;;;;;;;3.13;2.50;;;;;;;;;;5093657;28;20443;-69
2021/08/24 09:31:53;;;;;;;3.70;2.80;;;;;;;;;;5096380;28;20436;-69
2021/08/24 09:34:23;;;;;;;4.93;2.97;;;;;;;;;;5094292;28;20461;-68
2021/08/24 09:36:50;;;;;;;10.63;2.80;;;;;;;;;;5095262;28;20432;-69
2021/08/24 09:39:17;;;;;;;5.63;3.10;;;;;;;;;;5096319;28;20447;-69
2021/08/24 09:41:49;;;;;;;4.03;3.63;;;;;;;;;;5094431;28;20968;-69
2021/08/24 09:44:21;;;;;;;4.67;3.10;;;;;;;;;;5095895;28;20483;-70
2021/08/24 09:46:50;;;;;;;8.80;5.50;;;;;;;;;;5094873;28;20440;-69
2021/08/24 09:49:32;;;;;;;6.17;2.80;;;;;;;;;;5095693;28;20503;-69
2021/08/24 09:52:00;;;;;;;4.87;3.10;;;;;;;;;;5095220;28;20939;-69
2021/08/24 09:54:30;;;;;;;7.50;4.97;;;;;;;;;;5094781;28;20445;-69
2021/08/24 09:56:59;;;;;;;5.67;2.70;;;;;;;;;;5094892;28;20448;-70
2021/08/24 09:59:30;;;;;;;5.20;3.33;;;;;;;;;;5095126;28;20440;-69
2021/08/24 10:01:58;;;;;;;2.93;2.10;;;;;;;;;;5095584;28;20438;-70
2021/08/24 10:04:25;;;;;;;5.67;2.40;;;;;;;;;;5080010;28;20483;-69
2021/08/24 10:06:59;;;;;;;4.93;2.67;;;;;;;;;;5074513;28;20531;-69
2021/08/24 10:09:27;;;;;;;6.70;5.30;;;;;;;;;;5075566;28;20792;-70
2021/08/24 10:12:03;;;;;;;7.10;4.43;;;;;;;;;;5074955;28;20433;-70
2021/08/24 10:14:30;;;;;;;8.50;4.47;;;;;;;;;;5074778;28;20452;-69
2021/08/24 10:17:00;;;;;;;3.57;2.60;;;;;;;;;;5074226;28;20438;-69
2021/08/24 10:19:29;;;;;;;4.47;3.97;;;;;;;;;;5073934;28;20446;-69
2021/08/24 10:21:59;;;;;;;4.13;3.33;;;;;;;;;;5074103;28;20438;-69
2021/08/24 10:24:27;;;;;;;10.13;4.90;;;;;;;;;;5073467;28;20473;-69
2021/08/24 10:26:55;;;;;;;4.90;3.17;;;;;;;;;;5074325;28;20438;-69
2021/08/24 10:29:26;;;;;;;2.30;2.00;;;;;;;;;;5073405;28;20508;-69
2021/08/24 10:31:54;;;;;;;7.50;3.50;;;;;;;;;;5074415;28;20425;-69
2021/08/24 10:34:27;;;;;;;9.30;5.90;;;;;;;;;;5074395;28;20461;-69
2021/08/24 10:36:55;;;;;;;6.17;1.90;;;;;;;;;;5074196;28;20435;-69
2021/08/24 10:39:29;;;;;;;2.73;2.33;;;;;;;;;;5074220;28;20451;-69
2021/08/24 10:42:04;;;;;;;13.03;8.27;;;;;;;;;;5073903;28;20433;-69
2021/08/24 10:44:36;;;;;;;10.23;6.03;;;;;;;;;;5074001;28;20478;-69
2021/08/24 10:47:06;;;;;;;3.17;2.23;;;;;;;;;;5073695;28;20440;-69
2021/08/24 10:49:33;;;;;;;5.67;2.43;;;;;;;;;;5073812;28;20947;-69
2021/08/24 10:52:04;;;;;;;5.00;3.93;;;;;;;;;;5074323;28;20845;-69
2021/08/24 10:54:39;;;;;;;2.43;2.17;;;;;;;;;;5073700;28;20431;-69
2021/08/24 10:57:14;;;;;;;2.70;2.10;;;;;;;;;;5073558;28;20427;-69
2021/08/24 10:59:48;;;;;;;3.43;2.50;;;;;;;;;;5072804;28;20443;-69
2021/08/24 11:02:21;;;;;;;2.77;2.20;;;;;;;;;;5072537;28;20529;-70
2021/08/24 11:04:58;;;;;;;2.60;2.20;;;;;;;;;;5086835;28;20473;-69
2021/08/24 11:07:32;;;;;;;4.60;2.47;;;;;;;;;;5092273;28;20444;-70
2021/08/24 11:10:08;;;;;;;2.37;2.13;;;;;;;;;;5094002;28;20438;-70
2021/08/24 11:12:40;;;;;;;5.27;2.37;;;;;;;;;;5093617;28;20529;-69
2021/08/24 11:15:12;;;;;;;2.30;1.93;;;;;;;;;;5094334;28;20434;-70
2021/08/24 11:17:42;;;;;;;2.27;1.83;;;;;;;;;;5091577;28;20445;-69
2021/08/24 11:20:17;;;;;;;3.90;2.20;;;;;;;;;;5078044;28;20441;-69
2021/08/24 11:22:55;;;;;;;3.47;2.37;;;;;;;;;;5073051;28;20477;-69
2021/08/24 11:25:31;;;;;;;2.67;2.47;;;;;;;;;;5073051;28;20801;-69
2021/08/24 11:28:01;;;;;;;2.60;2.40;;;;;;;;;;5072198;28;20441;-69
2021/08/24 11:30:31;;;;;;;3.57;2.57;;;;;;;;;;5072025;28;20426;-69
2021/08/24 11:33:01;;;;;;;5.47;2.30;;;;;;;;;;5073161;28;20452;-69
2021/08/24 11:35:32;;;;;;;5.10;2.90;;;;;;;;;;5073245;28;20447;-69
2021/08/24 11:38:01;;;;;;;5.30;4.17;;;;;;;;;;5073246;28;20434;-69
2021/08/24 11:40:33;;;;;;;3.83;2.17;;;;;;;;;;5072995;28;20541;-69
2021/08/24 11:43:03;;;;;;;6.33;5.37;;;;;;;;;;5073162;28;20426;-69
2021/08/24 11:45:44;;;;;;;7.63;4.40;;;;;;;;;;5073279;28;20479;-69
2021/08/24 11:48:14;;;;;;;8.13;5.87;;;;;;;;;;5072847;28;20437;-69
2021/08/24 11:50:48;;;;;;;3.43;2.70;;;;;;;;;;5071851;28;20921;-69
2021/08/24 11:53:19;;;;;;;4.10;3.70;;;;;;;;;;5072678;28;20447;-69
2021/08/24 11:55:51;;;;;;;12.03;3.87;;;;;;;;;;5072591;28;20812;-69
2021/08/24 11:58:25;;;;;;;5.70;2.63;;;;;;;;;;5073254;28;20489;-69
2021/08/24 12:00:54;;;;;;;2.83;2.30;;;;;;;;;;5073230;28;20455;-69
2021/08/24 12:03:23;;;;;;;3.23;2.93;;;;;;;;;;5073405;28;20442;-69
2021/08/24 12:05:51;;;;;;;4.13;2.50;;;;;;;;;;5076645;28;20478;-69
2021/08/24 12:08:20;;;;;;;4.07;2.53;;;;;;;;;;5076777;28;21013;-69
2021/08/24 12:11:08;;;;;;;6.07;2.30;;;;;;;;;;5077100;28;20438;-69
2021/08/24 12:13:37;;;;;;;2.83;2.40;;;;;;;;;;5077147;28;20518;-69
2021/08/24 12:16:19;;;;;;;4.97;2.50;;;;;;;;;;5076995;28;20529;-69
2021/08/24 12:18:47;;;;;;;6.30;2.50;;;;;;;;;;5073548;28;20476;-69
2021/08/24 12:21:29;;;;;;;9.93;2.97;;;;;;;;;;5076981;28;20831;-69
2021/08/24 12:23:57;;;;;;;6.10;2.70;;;;;;;;;;5077317;28;20468;-69
2021/08/24 12:26:28;;;;;;;3.90;2.73;;;;;;;;;;5075467;28;20454;-69
2021/08/24 12:28:56;;;;;;;4.17;2.93;;;;;;;;;;5076464;28;20425;-69
2021/08/24 12:31:25;;;;;;;2.30;2.10;;;;;;;;;;5076363;28;20533;-69
2021/08/24 12:33:52;;;;;;;6.00;2.93;;;;;;;;;;5076903;28;20551;-69
2021/08/24 12:36:56;;;;;;;9.53;3.40;;;;;;;;;;5076339;28;20941;-69
2021/08/24 12:39:40;;;;;;;5.70;2.70;;;;;;;;;;5076508;28;20456;-69
2021/08/24 12:42:24;;;;;;;7.40;2.77;;;;;;;;;;5076661;28;20790;-69
2021/08/24 12:44:52;;;;;;;6.00;2.77;;;;;;;;;;5094230;28;20804;-69
2021/08/24 12:47:31;;;;;;;3.40;2.83;;;;;;;;;;5096110;28;20453;-67
2021/08/24 12:50:00;;;;;;;3.10;2.50;;;;;;;;;;5097014;28;20482;-67
2021/08/24 12:52:29;;;;;;;3.67;3.17;;;;;;;;;;5097271;28;20436;-68
2021/08/24 12:54:58;;;;;;;7.33;2.70;;;;;;;;;;5096861;28;20434;-67
2021/08/24 12:57:29;;;;;;;2.30;2.10;;;;;;;;;;5096781;28;20530;-67
2021/08/24 12:59:57;;;;;;;5.60;1.93;;;;;;;;;;5096215;28;20426;-67
2021/08/24 13:02:26;;;;;;;3.97;2.63;;;;;;;;;;5095968;28;20766;-67
2021/08/24 13:04:55;;;;;;;5.80;2.63;;;;;;;;;;5095470;28;20475;-68
2021/08/24 13:07:32;;;;;;;5.40;2.40;;;;;;;;;;5094411;28;20449;-68
2021/08/24 13:10:08;;;;;;;5.87;3.10;;;;;;;;;;5095486;28;20864;-69
2021/08/24 13:12:38;;;;;;;6.33;4.90;;;;;;;;;;5095965;28;20439;-67
2021/08/24 13:15:08;;;;;;;9.80;5.17;;;;;;;;;;5094591;28;20486;-68
2021/08/24 13:17:44;;;;;;;7.77;5.47;;;;;;;;;;5095612;28;20436;-68
2021/08/24 13:20:15;;;;;;;6.17;3.67;;;;;;;;;;5095186;28;20430;-68
2021/08/24 13:22:46;;;;;;;40.97;7.10;;;;;;;;;;5094940;28;20475;-67
2021/08/24 13:25:14;;;;;;;7.87;2.60;;;;;;;;;;5095425;28;20509;-68
2021/08/24 13:27:46;;;;;;;3.70;2.57;;;;;;;;;;5095373;28;20518;-67
2021/08/24 13:30:16;;;;;;;2.80;2.27;;;;;;;;;;5095015;28;20784;-67
2021/08/24 13:32:47;;;;;;;3.87;2.50;;;;;;;;;;5095158;28;21002;-68
2021/08/24 13:35:16;;;;;;;6.23;2.93;;;;;;;;;;5089992;28;20850;-67
2021/08/24 13:37:44;;;;;;;5.90;3.90;;;;;;;;;;5075564;28;20436;-68
2021/08/24 13:40:13;;;;;;;4.50;3.10;;;;;;;;;;5074773;28;20438;-67
2021/08/24 13:42:42;;;;;;;6.17;3.00;;;;;;;;;;5074901;28;20479;-67
2021/08/24 13:45:15;;;;;;;3.57;2.83;;;;;;;;;;5074286;28;20476;-67
2021/08/24 13:47:46;;;;;;;7.50;3.27;;;;;;;;;;5074477;28;20434;-68
2021/08/24 13:50:22;;;;;;;5.20;3.13;;;;;;;;;;5074090;28;20785;-68
2021/08/24 13:52:59;;;;;;;4.23;2.53;;;;;;;;;;5074893;28;20468;-68
2021/08/24 13:55:27;;;;;;;3.40;2.40;;;;;;;;;;5074173;28;20437;-68
2021/08/24 13:57:55;;;;;;;2.40;2.20;;;;;;;;;;5074620;28;20806;-67
2021/08/24 14:00:24;;;;;;;5.10;2.17;;;;;;;;;;5074900;28;20452;-67
2021/08/24 14:02:52;;;;;;;4.17;2.50;;;;;;;;;;5075042;28;20445;-67
2021/08/24 14:05:19;;;;;;;4.77;2.40;;;;;;;;;;5074549;28;20571;-67
2021/08/24 14:07:52;;;;;;;6.47;2.20;;;;;;;;;;5073153;28;20447;-68
2021/08/24 14:10:21;;;;;;;2.93;2.43;;;;;;;;;;5074677;28;20433;-68
2021/08/24 14:12:50;;;;;;;4.13;2.60;;;;;;;;;;5074858;28;20463;-68
2021/08/24 14:15:25;;;;;;;3.00;2.47;;;;;;;;;;5075401;28;20444;-67
2021/08/24 14:17:55;;;;;;;3.77;2.33;;;;;;;;;;5074761;28;20943;-68
2021/08/24 14:20:24;;;;;;;3.27;2.60;;;;;;;;;;5074174;28;20429;-68
2021/08/24 14:22:53;;;;;;;2.80;2.23;;;;;;;;;;5074310;28;20499;-68
2021/08/24 14:25:23;;;;;;;4.57;2.67;;;;;;;;;;5074285;28;21007;-68
2021/08/24 14:27:51;;;;;;;4.07;2.37;;;;;;;;;;5074608;28;20524;-68
2021/08/24 14:30:19;;;;;;;6.70;4.00;;;;;;;;;;5073906;28;20947;-68
2021/08/24 14:32:47;;;;;;;3.20;2.67;;;;;;;;;;5073770;28;20904;-68
2021/08/24 14:35:29;;;;;;;3.10;2.43;;;;;;;;;;5073952;28;20448;-68
2021/08/24 14:37:59;;;;;;;3.33;2.50;;;;;;;;;;5072560;28;20441;-68
2021/08/24 14:40:28;;;;;;;3.63;2.60;;;;;;;;;;5073540;28;20522;-68
2021/08/24 14:42:58;;;;;;;2.90;2.10;;;;;;;;;;5073849;28;20432;-67
2021/08/24 14:45:26;;;;;;;2.93;2.40;;;;;;;;;;5073994;28;20483;-67
2021/08/24 14:47:55;;;;;;;4.97;2.60;;;;;;;;;;5074079;28;20439;-68
2021/08/24 14:50:27;;;;;;;3.00;2.20;;;;;;;;;;5074171;28;20445;-68
2021/08/24 14:52:55;;;;;;;4.83;3.27;;;;;;;;;;5074052;28;20524;-68
2021/08/24 14:55:26;;;;;;;3.47;2.40;;;;;;;;;;5073928;28;20538;-68